createdAt,value
2023-05-14T00:00:59.100Z,8.98
2023-05-14T00:03:30.429Z,8.98
2023-05-14T00:05:58.547Z,8.99
2023-05-14T00:08:26.572Z,9.03
2023-05-14T00:10:54.690Z,9.00
2023-05-14T00:13:22.712Z,8.95
2023-05-14T00:15:50.833Z,8.92
2023-05-14T00:18:18.949Z,8.90
2023-05-14T00:20:47.077Z,8.85
2023-05-14T00:23:15.188Z,8.82
2023-05-14T00:25:43.224Z,8.85
2023-05-14T00:28:11.230Z,8.89
2023-05-14T00:30:40.053Z,8.94
2023-05-14T00:33:08.547Z,8.94
2023-05-14T00:35:36.792Z,8.95
2023-05-14T00:38:05.459Z,8.95
2023-05-14T00:40:33.344Z,8.95
2023-05-14T00:43:01.666Z,8.93
2023-05-14T00:45:29.789Z,8.89
2023-05-14T00:47:58.046Z,8.83
2023-05-14T00:50:26.654Z,8.78
2023-05-14T00:52:54.748Z,8.70
2023-05-14T00:55:23.065Z,8.65
2023-05-14T00:57:51.275Z,8.57
2023-05-14T01:00:19.823Z,8.50
2023-05-14T01:02:47.893Z,8.47
2023-05-14T01:05:16.044Z,8.45
2023-05-14T01:08:00.052Z,8.43
2023-05-14T01:10:39.002Z,8.39
2023-05-14T01:13:31.282Z,8.35
2023-05-14T01:16:01.050Z,8.36
2023-05-14T01:18:30.608Z,8.40
2023-05-14T01:20:59.546Z,8.45
2023-05-14T01:23:27.569Z,8.46
2023-05-14T01:25:55.988Z,8.45
2023-05-14T01:28:33.100Z,8.44
2023-05-14T01:31:10.036Z,8.43
2023-05-14T01:33:42.558Z,8.42
2023-05-14T01:36:11.257Z,8.40
2023-05-14T01:38:40.067Z,8.34
2023-05-14T01:41:08.612Z,8.25
2023-05-14T01:43:37.921Z,8.18
2023-05-14T01:46:06.290Z,8.15
2023-05-14T01:48:34.354Z,8.11
2023-05-14T01:51:02.780Z,8.09
2023-05-14T01:53:30.891Z,8.08
2023-05-14T01:55:58.920Z,8.07
2023-05-14T01:58:27.131Z,8.09
2023-05-14T02:00:55.150Z,8.13
2023-05-14T02:03:23.184Z,8.15
2023-05-14T02:05:51.490Z,8.17
2023-05-14T02:08:19.610Z,8.20
2023-05-14T02:10:47.634Z,8.19
2023-05-14T02:13:15.653Z,8.20
2023-05-14T02:15:43.709Z,8.19
2023-05-14T02:18:11.724Z,8.16
2023-05-14T02:20:39.810Z,8.11
2023-05-14T02:23:08.033Z,8.11
2023-05-14T02:25:36.256Z,8.13
2023-05-14T02:28:04.369Z,8.13
2023-05-14T02:30:32.390Z,8.08
2023-05-14T02:33:00.535Z,8.00
2023-05-14T02:35:28.629Z,7.95
2023-05-14T02:37:56.649Z,7.83
2023-05-14T02:40:24.905Z,7.78
2023-05-14T02:42:53.490Z,7.79
2023-05-14T02:45:21.814Z,7.79
2023-05-14T02:47:49.876Z,7.76
2023-05-14T02:50:18.055Z,7.75
2023-05-14T02:52:46.074Z,7.72
2023-05-14T02:55:14.195Z,7.71
2023-05-14T02:57:42.515Z,7.69
2023-05-14T03:00:11.838Z,7.68
2023-05-14T03:02:40.596Z,7.64
2023-05-14T03:05:09.582Z,7.65
2023-05-14T03:07:37.606Z,7.70
2023-05-14T03:10:06.430Z,7.77
2023-05-14T03:12:34.560Z,7.86
2023-05-14T03:15:02.665Z,7.95
2023-05-14T03:17:30.722Z,8.01
2023-05-14T03:19:59.011Z,8.08
2023-05-14T03:22:28.127Z,8.11
2023-05-14T03:24:56.151Z,8.11
2023-05-14T03:27:24.129Z,8.16
2023-05-14T03:29:52.189Z,8.23
2023-05-14T03:32:21.527Z,8.30
2023-05-14T03:34:49.630Z,8.37
2023-05-14T03:37:17.646Z,8.48
2023-05-14T03:39:45.802Z,8.55
2023-05-14T03:42:13.789Z,8.66
2023-05-14T03:44:42.211Z,8.78
2023-05-14T03:47:10.531Z,8.88
2023-05-14T03:49:38.769Z,8.97
2023-05-14T03:52:07.985Z,9.08
2023-05-14T03:54:36.493Z,9.18
2023-05-14T03:57:05.135Z,9.31
2023-05-14T03:59:33.037Z,9.46
2023-05-14T04:02:01.064Z,9.62
2023-05-14T04:04:29.123Z,9.78
2023-05-14T04:06:57.197Z,9.92
2023-05-14T04:09:25.214Z,10.05
2023-05-14T04:11:53.338Z,10.18
2023-05-14T04:14:21.377Z,10.27
2023-05-14T04:16:49.408Z,10.38
2023-05-14T04:19:18.282Z,10.48
2023-05-14T04:21:46.520Z,10.58
2023-05-14T04:24:14.537Z,10.70
2023-05-14T04:26:42.661Z,10.80
2023-05-14T04:29:10.781Z,10.91
2023-05-14T04:31:38.923Z,11.04
2023-05-14T04:34:06.911Z,11.21
2023-05-14T04:36:34.938Z,11.40
2023-05-14T04:39:03.057Z,11.58
2023-05-14T04:41:31.175Z,11.78
2023-05-14T04:44:01.931Z,11.96
2023-05-14T04:46:30.180Z,12.11
2023-05-14T04:48:58.442Z,12.26
2023-05-14T04:51:26.458Z,12.39
2023-05-14T04:53:54.405Z,12.54
2023-05-14T04:56:22.606Z,12.66
2023-05-14T04:58:50.604Z,12.78
2023-05-14T05:01:18.559Z,12.89
2023-05-14T05:03:46.690Z,13.02
2023-05-14T05:06:14.898Z,13.15
2023-05-14T05:08:42.904Z,13.26
2023-05-14T05:11:11.018Z,13.37
2023-05-14T05:13:39.058Z,13.49
2023-05-14T05:16:07.479Z,13.61
2023-05-14T05:18:35.683Z,13.74
2023-05-14T05:21:04.001Z,13.86
2023-05-14T05:23:32.025Z,14.00
2023-05-14T05:26:00.068Z,14.13
2023-05-14T05:28:28.165Z,14.26
2023-05-14T05:30:56.227Z,14.40
2023-05-14T05:33:24.408Z,14.55
2023-05-14T05:35:52.631Z,14.69
2023-05-14T05:38:20.819Z,14.83
2023-05-14T05:40:48.863Z,14.95
2023-05-14T05:43:17.046Z,15.10
2023-05-14T05:45:46.132Z,15.24
2023-05-14T05:48:14.230Z,15.38
2023-05-14T05:50:44.382Z,15.53
2023-05-14T05:53:12.677Z,15.68
2023-05-14T05:55:40.893Z,15.83
2023-05-14T05:58:08.911Z,15.96
2023-05-14T06:00:36.955Z,16.09
2023-05-14T06:03:05.069Z,16.22
2023-05-14T06:05:33.402Z,16.33
2023-05-14T06:08:01.493Z,16.46
2023-05-14T06:10:29.580Z,16.60
2023-05-14T06:12:57.743Z,16.73
2023-05-14T06:15:25.755Z,16.90
2023-05-14T06:17:53.813Z,17.06
2023-05-14T06:20:22.116Z,17.21
2023-05-14T06:22:50.312Z,17.35
2023-05-14T06:25:18.624Z,17.51
2023-05-14T06:27:46.652Z,17.64
2023-05-14T06:30:15.527Z,17.78
2023-05-14T06:32:43.546Z,17.95
2023-05-14T06:35:11.611Z,18.11
2023-05-14T06:37:39.651Z,18.25
2023-05-14T06:40:08.358Z,18.38
2023-05-14T06:42:36.476Z,18.50
2023-05-14T06:45:06.704Z,18.59
2023-05-14T06:47:34.743Z,18.70
2023-05-14T06:50:02.948Z,18.84
2023-05-14T06:52:30.954Z,18.95
2023-05-14T06:54:58.977Z,19.05
2023-05-14T06:57:26.996Z,19.11
2023-05-14T06:59:55.044Z,19.16
2023-05-14T07:02:23.171Z,19.22
2023-05-14T07:04:51.262Z,19.28
2023-05-14T07:07:21.294Z,19.41
2023-05-14T07:09:49.313Z,19.51
2023-05-14T07:12:17.319Z,19.58
2023-05-14T07:14:45.440Z,19.61
2023-05-14T07:17:13.608Z,19.66
2023-05-14T07:19:41.780Z,19.75
2023-05-14T07:22:09.905Z,19.82
2023-05-14T07:24:37.920Z,19.87
2023-05-14T07:27:06.442Z,19.93
2023-05-14T07:29:35.264Z,20.02
2023-05-14T07:32:03.410Z,20.12
2023-05-14T07:34:31.702Z,20.18
2023-05-14T07:36:59.829Z,20.23
2023-05-14T07:39:27.946Z,20.29
2023-05-14T07:41:55.980Z,20.35
2023-05-14T07:44:24.087Z,20.39
2023-05-14T07:46:52.152Z,20.41
2023-05-14T07:49:20.424Z,20.43
2023-05-14T07:51:48.541Z,20.46
2023-05-14T07:54:17.364Z,20.47
2023-05-14T07:56:45.390Z,20.54
2023-05-14T07:59:13.404Z,20.68
2023-05-14T08:01:41.892Z,20.78
2023-05-14T08:04:12.044Z,20.86
2023-05-14T08:06:40.482Z,20.93
2023-05-14T08:09:08.889Z,20.99
2023-05-14T08:11:36.918Z,21.05
2023-05-14T08:14:04.939Z,21.08
2023-05-14T08:16:32.997Z,21.10
2023-05-14T08:19:01.174Z,21.12
2023-05-14T08:21:29.297Z,21.12
2023-05-14T08:23:57.417Z,21.14
2023-05-14T08:26:26.061Z,21.20
2023-05-14T08:28:54.962Z,21.27
2023-05-14T08:31:23.059Z,21.40
2023-05-14T08:33:51.203Z,21.51
2023-05-14T08:36:19.231Z,21.56
2023-05-14T08:38:47.243Z,21.60
2023-05-14T08:41:16.471Z,21.63
2023-05-14T08:43:56.410Z,21.67
2023-05-14T08:46:25.347Z,21.73
2023-05-14T08:49:00.620Z,21.76
2023-05-14T08:51:28.816Z,21.87
2023-05-14T08:53:59.307Z,21.90
2023-05-14T08:56:27.759Z,21.89
2023-05-14T08:58:55.976Z,21.92
2023-05-14T09:01:23.927Z,21.92
2023-05-14T09:03:54.031Z,21.98
2023-05-14T09:06:22.848Z,22.03
2023-05-14T09:08:50.870Z,22.13
2023-05-14T09:11:19.592Z,22.23
2023-05-14T09:13:47.616Z,22.33
2023-05-14T09:16:18.063Z,22.44
2023-05-14T09:18:46.594Z,22.53
2023-05-14T09:21:15.475Z,22.57
2023-05-14T09:23:44.606Z,22.67
2023-05-14T09:26:17.055Z,22.80
2023-05-14T09:28:45.063Z,22.86
2023-05-14T09:31:13.206Z,22.88
2023-05-14T09:33:41.397Z,22.93
2023-05-14T09:36:09.424Z,22.95
2023-05-14T09:38:37.439Z,22.97
2023-05-14T09:41:05.758Z,23.00
2023-05-14T09:43:33.878Z,23.01
2023-05-14T09:46:01.797Z,23.04
2023-05-14T09:48:29.790Z,23.15
2023-05-14T09:50:57.936Z,23.22
2023-05-14T09:53:26.260Z,23.22
2023-05-14T09:55:54.279Z,23.16
2023-05-14T09:58:22.294Z,23.05
2023-05-14T10:00:51.175Z,22.96
2023-05-14T10:03:20.558Z,22.84
2023-05-14T10:05:51.210Z,22.77
2023-05-14T10:08:28.145Z,22.76
2023-05-14T10:10:59.253Z,22.82
2023-05-14T10:13:39.720Z,22.88
2023-05-14T10:16:10.443Z,22.95
2023-05-14T10:18:48.598Z,23.08
2023-05-14T10:21:20.844Z,23.20
2023-05-14T10:23:50.518Z,23.18
2023-05-14T10:26:18.780Z,23.24
2023-05-14T10:28:47.433Z,23.31
2023-05-14T10:31:15.877Z,23.35
2023-05-14T10:33:50.335Z,23.38
2023-05-14T10:36:18.987Z,23.37
2023-05-14T10:38:47.521Z,23.32
2023-05-14T10:41:18.203Z,23.39
2023-05-14T10:43:46.357Z,23.48
2023-05-14T10:46:15.017Z,23.40
2023-05-14T10:48:44.338Z,23.30
2023-05-14T10:51:12.894Z,23.35
2023-05-14T10:53:43.322Z,23.41
2023-05-14T10:56:14.246Z,23.48
2023-05-14T10:58:44.238Z,23.58
2023-05-14T11:01:13.746Z,23.66
2023-05-14T11:03:45.263Z,23.65
2023-05-14T11:06:15.585Z,23.67
2023-05-14T11:08:44.651Z,23.76
2023-05-14T11:11:12.858Z,23.94
2023-05-14T11:13:41.456Z,23.99
2023-05-14T11:16:21.990Z,24.05
2023-05-14T11:19:02.910Z,24.00
2023-05-14T11:21:34.234Z,24.06
2023-05-14T11:24:03.872Z,24.06
2023-05-14T11:26:32.144Z,24.05
2023-05-14T11:29:00.501Z,24.09
2023-05-14T11:31:28.726Z,24.19
2023-05-14T11:33:57.335Z,24.29
2023-05-14T11:36:25.284Z,24.27
2023-05-14T11:38:53.248Z,24.34
2023-05-14T11:41:23.295Z,24.37
2023-05-14T11:43:51.718Z,24.36
2023-05-14T11:46:20.028Z,24.37
2023-05-14T11:48:48.363Z,24.35
2023-05-14T11:51:16.394Z,24.42
2023-05-14T11:53:45.963Z,24.47
2023-05-14T11:56:14.121Z,24.48
2023-05-14T11:58:48.460Z,24.48
2023-05-14T12:01:16.578Z,24.50
2023-05-14T12:03:44.692Z,24.39
2023-05-14T12:06:12.916Z,24.34
2023-05-14T12:08:41.341Z,24.31
2023-05-14T12:11:09.660Z,24.35
2023-05-14T12:13:37.682Z,24.43
2023-05-14T12:16:06.316Z,24.43
2023-05-14T12:18:34.410Z,24.48
2023-05-14T12:21:08.025Z,24.54
2023-05-14T12:23:38.986Z,24.56
2023-05-14T12:26:09.500Z,24.48
2023-05-14T12:28:43.630Z,24.45
2023-05-14T12:31:12.348Z,24.46
2023-05-14T12:33:40.557Z,24.46
2023-05-14T12:38:41.401Z,24.41
2023-05-14T12:41:09.484Z,24.42
2023-05-14T12:43:37.398Z,24.33
2023-05-14T12:46:05.523Z,24.21
2023-05-14T12:48:33.437Z,24.10
2023-05-14T12:51:01.666Z,23.91
2023-05-14T12:53:29.677Z,23.65
2023-05-14T12:55:58.002Z,23.46
2023-05-14T12:58:26.016Z,23.32
2023-05-14T13:00:54.097Z,23.16
2023-05-14T13:03:22.172Z,23.10
2023-05-14T13:05:52.395Z,22.93
2023-05-14T13:08:25.033Z,22.74
2023-05-14T13:10:54.464Z,22.65
2023-05-14T13:13:23.477Z,22.60
2023-05-14T13:15:51.479Z,22.51
2023-05-14T13:18:19.602Z,22.31
2023-05-14T13:20:48.025Z,22.19
2023-05-14T13:23:16.043Z,22.02
2023-05-14T13:25:44.062Z,21.89
2023-05-14T13:28:12.085Z,21.78
2023-05-14T13:30:40.123Z,21.66
2023-05-14T13:33:09.101Z,21.56
2023-05-14T13:35:37.251Z,21.50
2023-05-14T13:38:05.267Z,21.41
2023-05-14T13:40:33.395Z,21.38
2023-05-14T13:43:01.412Z,21.45
2023-05-14T13:45:29.430Z,21.55
2023-05-14T13:47:57.473Z,21.58
2023-05-14T13:50:25.796Z,21.65
2023-05-14T13:52:53.684Z,21.69
2023-05-14T13:55:21.924Z,21.65
2023-05-14T13:57:50.234Z,21.59
2023-05-14T14:00:18.848Z,21.59
2023-05-14T14:02:46.892Z,21.62
2023-05-14T14:05:15.217Z,21.69
2023-05-14T14:07:43.109Z,21.75
2023-05-14T14:10:11.133Z,21.77
2023-05-14T14:12:39.084Z,21.67
2023-05-14T14:15:07.971Z,21.69
2023-05-14T14:17:36.928Z,21.62
2023-05-14T14:20:06.358Z,21.54
2023-05-14T14:22:34.452Z,21.42
2023-05-14T14:25:02.972Z,21.29
2023-05-14T14:27:32.383Z,21.21
2023-05-14T14:30:00.804Z,21.15
2023-05-14T14:32:29.582Z,21.08
2023-05-14T14:34:57.647Z,21.11
2023-05-14T14:37:25.666Z,21.11
2023-05-14T14:39:53.684Z,21.14
2023-05-14T14:42:21.704Z,21.17
2023-05-14T14:44:50.049Z,21.20
2023-05-14T14:47:18.046Z,21.17
2023-05-14T14:49:46.163Z,21.19
2023-05-14T14:52:14.207Z,21.21
2023-05-14T14:54:42.205Z,21.11
2023-05-14T14:57:10.624Z,20.96
2023-05-14T14:59:38.746Z,20.79
2023-05-14T15:02:09.146Z,20.57
2023-05-14T15:04:38.848Z,20.38
2023-05-14T15:07:06.824Z,20.28
2023-05-14T15:09:34.842Z,20.21
2023-05-14T15:12:02.866Z,20.18
2023-05-14T15:14:30.883Z,20.17
2023-05-14T15:16:58.941Z,20.13
2023-05-14T15:19:27.124Z,20.09
2023-05-14T15:21:55.743Z,20.02
2023-05-14T15:24:25.265Z,19.94
2023-05-14T15:26:53.812Z,19.90
2023-05-14T15:29:22.528Z,19.87
2023-05-14T15:31:50.575Z,19.85
2023-05-14T15:34:18.671Z,19.90
2023-05-14T15:36:46.768Z,19.93
2023-05-14T15:39:14.886Z,19.86
2023-05-14T15:41:42.922Z,19.85
2023-05-14T15:44:10.927Z,19.91
2023-05-14T15:46:39.090Z,19.97
2023-05-14T15:49:07.175Z,19.90
2023-05-14T15:51:35.485Z,19.90
2023-05-14T15:54:03.503Z,19.88
2023-05-14T15:56:31.739Z,19.77
2023-05-14T15:58:59.747Z,19.65
2023-05-14T16:01:27.808Z,19.58
2023-05-14T16:03:56.072Z,19.55
2023-05-14T16:06:24.209Z,19.46
2023-05-14T16:08:52.325Z,19.36
2023-05-14T16:11:21.665Z,19.31
2023-05-14T16:13:49.666Z,19.25
2023-05-14T16:16:17.831Z,19.20
2023-05-14T16:18:46.236Z,19.14
2023-05-14T16:21:14.235Z,19.09
2023-05-14T16:23:42.546Z,19.05
2023-05-14T16:26:11.168Z,18.98
2023-05-14T16:28:41.394Z,18.92
2023-05-14T16:31:09.518Z,18.88
2023-05-14T16:33:37.536Z,18.81
2023-05-14T16:36:06.057Z,18.73
2023-05-14T16:38:35.522Z,18.62
2023-05-14T16:41:07.229Z,18.51
2023-05-14T16:43:35.633Z,18.37
2023-05-14T16:46:03.569Z,18.23
2023-05-14T16:48:31.769Z,18.15
2023-05-14T16:51:00.107Z,18.05
2023-05-14T16:53:28.006Z,17.96
2023-05-14T16:55:56.234Z,17.87
2023-05-14T16:58:24.245Z,17.78
2023-05-14T17:00:52.260Z,17.67
2023-05-14T17:03:20.987Z,17.61
2023-05-14T17:05:49.010Z,17.55
2023-05-14T17:08:17.229Z,17.47
2023-05-14T17:10:45.247Z,17.37
2023-05-14T17:13:13.262Z,17.29
2023-05-14T17:15:59.982Z,17.18
2023-05-14T17:18:28.683Z,17.06
2023-05-14T17:20:56.797Z,16.96
2023-05-14T17:23:25.014Z,16.85
2023-05-14T17:25:53.127Z,16.78
2023-05-14T17:28:21.652Z,16.68
2023-05-14T17:30:49.666Z,16.61
2023-05-14T17:33:17.717Z,16.56
2023-05-14T17:35:46.117Z,16.50
2023-05-14T17:38:14.029Z,16.45
2023-05-14T17:40:42.345Z,16.37
2023-05-14T17:43:10.364Z,16.30
2023-05-14T17:45:50.261Z,16.23
2023-05-14T17:48:23.005Z,16.16
2023-05-14T17:50:52.067Z,16.10
2023-05-14T17:53:20.117Z,16.03
2023-05-14T17:55:48.438Z,15.97
2023-05-14T17:58:16.664Z,15.92
2023-05-14T18:00:44.757Z,15.88
2023-05-14T18:03:14.450Z,15.83
2023-05-14T18:05:42.654Z,15.77
2023-05-14T18:08:10.750Z,15.73
2023-05-14T18:10:38.771Z,15.69
2023-05-14T18:13:06.795Z,15.64
2023-05-14T18:15:36.435Z,15.61
2023-05-14T18:18:05.021Z,15.55
2023-05-14T18:20:35.358Z,15.52
2023-05-14T18:23:03.715Z,15.49
2023-05-14T18:25:31.711Z,15.46
2023-05-14T18:28:00.038Z,15.43
2023-05-14T18:30:28.255Z,15.39
2023-05-14T18:32:56.387Z,15.35
2023-05-14T18:35:24.627Z,15.34
2023-05-14T18:37:53.620Z,15.37
2023-05-14T18:40:21.638Z,15.37
2023-05-14T18:42:49.652Z,15.40
2023-05-14T18:45:17.874Z,15.43
2023-05-14T18:47:46.232Z,15.47
2023-05-14T18:50:14.321Z,15.42
2023-05-14T18:52:42.335Z,15.36
2023-05-14T18:55:10.351Z,15.26
2023-05-14T18:57:38.474Z,15.13
2023-05-14T19:00:07.366Z,15.07
2023-05-14T19:02:35.556Z,15.03
2023-05-14T19:05:04.137Z,15.00
2023-05-14T19:07:32.359Z,14.98
2023-05-14T19:10:00.688Z,14.94
2023-05-14T19:12:28.704Z,14.88
2023-05-14T19:14:56.713Z,14.78
2023-05-14T19:17:25.286Z,14.72
2023-05-14T19:19:53.566Z,14.68
2023-05-14T19:22:21.584Z,14.60
2023-05-14T19:27:24.287Z,14.30
2023-05-14T19:29:52.359Z,14.17
2023-05-14T19:32:20.374Z,14.07
2023-05-14T19:34:49.538Z,13.96
2023-05-14T19:37:19.028Z,13.88
2023-05-14T19:39:47.156Z,13.80
2023-05-14T19:42:15.263Z,13.70
2023-05-14T19:44:44.216Z,13.57
2023-05-14T19:47:12.477Z,13.41
2023-05-14T19:49:40.636Z,13.29
2023-05-14T19:52:08.743Z,13.21
2023-05-14T19:54:36.775Z,13.12
2023-05-14T19:57:05.729Z,13.02
2023-05-14T19:59:34.850Z,12.99
2023-05-14T20:02:04.789Z,12.95
2023-05-14T20:04:33.489Z,12.91
2023-05-14T20:07:01.679Z,12.89
2023-05-14T20:09:29.697Z,12.90
2023-05-14T20:11:57.720Z,12.86
2023-05-14T20:14:25.738Z,12.83
2023-05-14T20:16:53.796Z,12.79
2023-05-14T20:19:22.508Z,12.73
2023-05-14T20:21:50.702Z,12.71
2023-05-14T20:24:18.719Z,12.66
2023-05-14T20:26:46.738Z,12.60
2023-05-14T20:29:14.771Z,12.57
2023-05-14T20:31:42.881Z,12.53
2023-05-14T20:34:10.901Z,12.49
2023-05-14T20:36:38.920Z,12.44
2023-05-14T20:39:07.052Z,12.42
2023-05-14T20:41:35.073Z,12.42
2023-05-14T20:44:03.480Z,12.45
2023-05-14T20:46:31.521Z,12.47
2023-05-14T20:49:01.442Z,12.44
2023-05-14T20:51:29.445Z,12.39
2023-05-14T20:53:57.461Z,12.35
2023-05-14T20:56:26.586Z,12.31
2023-05-14T20:58:55.012Z,12.27
2023-05-14T21:01:23.054Z,12.22
2023-05-14T21:03:51.187Z,12.16
2023-05-14T21:06:19.371Z,12.12
2023-05-14T21:08:47.388Z,12.08
2023-05-14T21:11:15.416Z,12.05
2023-05-14T21:13:44.625Z,12.03
2023-05-14T21:16:12.956Z,12.03
2023-05-14T21:18:41.086Z,12.03
2023-05-14T21:21:09.394Z,11.98
2023-05-14T21:23:37.425Z,11.93
2023-05-14T21:26:05.535Z,11.90
2023-05-14T21:28:33.748Z,11.86
2023-05-14T21:31:01.766Z,11.82
2023-05-14T21:33:29.788Z,11.75
2023-05-14T21:35:57.823Z,11.69
2023-05-14T21:38:25.935Z,11.62
2023-05-14T21:40:53.957Z,11.55
2023-05-14T21:43:21.968Z,11.54
2023-05-14T21:45:50.187Z,11.54
2023-05-14T21:48:18.577Z,11.56
2023-05-14T21:50:47.039Z,11.58
2023-05-14T21:53:15.251Z,11.56
2023-05-14T21:55:43.372Z,11.52
2023-05-14T21:58:11.402Z,11.47
2023-05-14T22:00:39.431Z,11.40
2023-05-14T22:03:07.512Z,11.32
2023-05-14T22:05:35.977Z,11.20
2023-05-14T22:08:04.174Z,11.10
2023-05-14T22:10:32.289Z,10.97
2023-05-14T22:13:00.413Z,10.88
2023-05-14T22:15:28.427Z,10.79
2023-05-14T22:17:57.438Z,10.75
2023-05-14T22:20:25.568Z,10.72
2023-05-14T22:22:53.589Z,10.70
2023-05-14T22:25:21.643Z,10.68
2023-05-14T22:27:49.727Z,10.68
2023-05-14T22:30:17.750Z,10.65
2023-05-14T22:32:45.830Z,10.60
2023-05-14T22:35:14.394Z,10.56
2023-05-14T22:37:42.415Z,10.53
2023-05-14T22:40:11.233Z,10.51
2023-05-14T22:42:39.350Z,10.53
2023-05-14T22:45:08.080Z,10.55
2023-05-14T22:47:36.226Z,10.55
2023-05-14T22:50:11.195Z,10.52
2023-05-14T22:52:39.435Z,10.42
2023-05-14T22:55:08.592Z,10.28
2023-05-14T22:57:36.806Z,10.21
2023-05-14T23:00:05.726Z,10.15
2023-05-14T23:02:33.803Z,10.11
2023-05-14T23:05:01.996Z,10.05
2023-05-14T23:07:30.090Z,9.99
2023-05-14T23:09:58.104Z,9.97
2023-05-14T23:12:26.126Z,9.95
2023-05-14T23:14:54.143Z,9.97
2023-05-14T23:17:22.229Z,9.98
2023-05-14T23:19:50.695Z,10.00
2023-05-14T23:22:18.801Z,10.01
2023-05-14T23:24:46.836Z,9.98
2023-05-14T23:27:14.940Z,9.99
2023-05-14T23:29:42.961Z,10.01
2023-05-14T23:32:11.017Z,9.99
2023-05-14T23:34:38.999Z,9.97
2023-05-14T23:37:07.821Z,9.96
2023-05-14T23:39:36.239Z,9.99
2023-05-14T23:42:04.270Z,9.97
2023-05-14T23:44:32.282Z,9.97
2023-05-14T23:47:00.301Z,9.96
2023-05-14T23:49:28.323Z,9.97
2023-05-14T23:51:56.940Z,9.98
2023-05-14T23:54:25.261Z,9.96
2023-05-14T23:56:53.580Z,9.92
2023-05-14T23:59:22.551Z,9.91
